createdAt,value
2019-02-05T00:01:01.735Z,3.6
2019-02-05T00:04:02.011Z,3.8
2019-02-05T00:07:02.171Z,3.7
2019-02-05T00:10:02.144Z,3.8
2019-02-05T00:13:05.821Z,3.9
2019-02-05T00:16:01.984Z,3.8
2019-02-05T00:19:02.047Z,3.7
2019-02-05T00:22:02.170Z,3.7
2019-02-05T00:25:01.957Z,3.7
2019-02-05T00:28:02.287Z,3.8
2019-02-05T00:31:01.826Z,3.7
2019-02-05T00:34:02.302Z,3.6
2019-02-05T00:37:02.052Z,3.6
2019-02-05T00:40:02.186Z,3.7
2019-02-05T00:43:01.629Z,3.7
2019-02-05T00:46:01.854Z,3.8
2019-02-05T00:49:01.706Z,3.7
2019-02-05T00:52:05.166Z,4
2019-02-05T00:55:01.867Z,3.9
2019-02-05T00:58:01.709Z,3.9
2019-02-05T01:01:01.780Z,3.9
2019-02-05T01:04:02.183Z,3.7
2019-02-05T01:07:03.826Z,3.6
2019-02-05T01:10:02.088Z,3.6
2019-02-05T01:13:02.030Z,3.6
2019-02-05T01:16:01.716Z,3.6
2019-02-05T01:19:01.919Z,3.6
2019-02-05T01:22:02.077Z,3.6
2019-02-05T01:25:02.099Z,3.9
2019-02-05T01:28:01.704Z,3.9
2019-02-05T01:31:05.241Z,3.9
2019-02-05T01:34:02.121Z,4
2019-02-05T01:37:01.989Z,3.8
2019-02-05T01:40:01.637Z,3.6
2019-02-05T01:43:02.614Z,3.5
2019-02-05T01:46:02.418Z,3.6
2019-02-05T01:49:01.542Z,3.7
2019-02-05T01:52:01.856Z,3.8
2019-02-05T01:55:02.045Z,3.7
2019-02-05T01:58:02.157Z,3.7
2019-02-05T02:01:01.974Z,3.8
2019-02-05T02:04:01.568Z,4.2
2019-02-05T02:07:01.760Z,4
2019-02-05T02:10:01.678Z,3.9
2019-02-05T02:13:02.320Z,3.9
2019-02-05T02:16:02.046Z,3.8
2019-02-05T02:19:02.011Z,3.7
2019-02-05T02:22:01.590Z,3.6
2019-02-05T02:25:05.115Z,3.8
2019-02-05T02:28:01.645Z,3.7
2019-02-05T02:31:01.715Z,3.6
2019-02-05T02:34:01.935Z,3.5
2019-02-05T02:37:01.723Z,3.7
2019-02-05T02:40:03.898Z,3.6
2019-02-05T02:43:02.018Z,3.5
2019-02-05T02:46:02.020Z,3.7
2019-02-05T02:49:01.779Z,3.7
2019-02-05T02:52:02.199Z,3.9
2019-02-05T02:55:01.655Z,4
2019-02-05T02:58:02.073Z,3.8
2019-02-05T03:01:01.893Z,3.7
2019-02-05T03:04:02.425Z,3.9
2019-02-05T03:07:02.355Z,3.7
2019-02-05T03:10:02.103Z,3.7
2019-02-05T03:13:02.566Z,3.8
2019-02-05T03:16:01.906Z,3.8
2019-02-05T03:19:01.975Z,3.7
2019-02-05T03:22:01.795Z,3.8
2019-02-05T03:25:05.238Z,3.8
2019-02-05T03:28:01.548Z,3.8
2019-02-05T03:31:02.207Z,3.8
2019-02-05T03:34:01.900Z,3.8
2019-02-05T03:37:01.737Z,3.8
2019-02-05T03:40:01.695Z,3.8
2019-02-05T03:43:01.579Z,3.8
2019-02-05T03:46:01.658Z,3.9
2019-02-05T03:49:01.599Z,3.9
2019-02-05T03:52:01.589Z,4
2019-02-05T03:55:02.185Z,4
2019-02-05T03:58:01.667Z,4
2019-02-05T04:01:01.621Z,4
2019-02-05T04:04:01.868Z,4
2019-02-05T04:07:01.947Z,4
2019-02-05T04:10:02.064Z,4
2019-02-05T04:13:02.114Z,4.1
2019-02-05T04:16:02.100Z,4.1
2019-02-05T04:19:02.131Z,4
2019-02-05T04:22:02.063Z,3.9
2019-02-05T04:25:05.462Z,3.8
2019-02-05T04:28:01.715Z,4
2019-02-05T04:31:01.537Z,3.9
2019-02-05T04:34:02.668Z,3.9
2019-02-05T04:37:02.792Z,3.8
2019-02-05T04:40:04.240Z,3.8
2019-02-05T04:43:01.833Z,3.8
2019-02-05T04:46:01.669Z,3.9
2019-02-05T04:49:02.170Z,3.7
2019-02-05T04:52:02.084Z,3.7
2019-02-05T04:55:01.778Z,3.7
2019-02-05T04:58:02.266Z,3.8
2019-02-05T05:01:01.552Z,3.8
2019-02-05T05:04:01.758Z,3.7
2019-02-05T05:07:01.636Z,3.6
2019-02-05T05:10:01.717Z,3.4
2019-02-05T05:13:01.616Z,3.4
2019-02-05T05:16:01.707Z,3.4
2019-02-05T05:19:01.706Z,3.4
2019-02-05T05:22:01.664Z,3.5
2019-02-05T05:25:01.804Z,3.5
2019-02-05T05:28:10.956Z,3.6
2019-02-05T05:31:02.213Z,3.7
2019-02-05T05:34:01.518Z,3.5
2019-02-05T05:37:01.779Z,3.5
2019-02-05T05:40:02.006Z,3.4
2019-02-05T05:43:01.757Z,3.6
2019-02-05T05:46:02.270Z,3.4
2019-02-05T05:49:02.068Z,3.4
2019-02-05T05:52:02.010Z,3.5
2019-02-05T05:55:03.188Z,3.4
2019-02-05T05:58:03.477Z,3.5
2019-02-05T06:01:03.221Z,3.6
2019-02-05T06:04:03.640Z,3.5
2019-02-05T06:07:01.822Z,3.4
2019-02-05T06:10:07.485Z,3.7
2019-02-05T06:13:01.802Z,3.5
2019-02-05T06:16:01.994Z,3.6
2019-02-05T06:19:01.847Z,3.8
2019-02-05T06:22:01.542Z,3.8
2019-02-05T06:25:03.967Z,4.3
2019-02-05T06:28:01.538Z,4.8
2019-02-05T06:31:01.662Z,4.8
2019-02-05T06:34:01.505Z,5.4
2019-02-05T06:37:01.674Z,4.7
2019-02-05T06:40:04.378Z,4.2
2019-02-05T06:43:01.573Z,3.8
2019-02-05T06:46:01.691Z,4.3
2019-02-05T06:49:01.894Z,3.9
2019-02-05T06:52:01.581Z,3.9
2019-02-05T06:55:04.590Z,4.3
2019-02-05T06:58:01.671Z,4.7
2019-02-05T07:01:01.869Z,5
2019-02-05T07:04:02.197Z,4.3
2019-02-05T07:07:02.247Z,4.4
2019-02-05T07:10:04.594Z,4
2019-02-05T07:13:03.659Z,3.9
2019-02-05T07:16:02.259Z,3.6
2019-02-05T07:19:01.761Z,3.5
2019-02-05T07:22:02.062Z,3.4
2019-02-05T07:25:05.931Z,3.8
2019-02-05T07:28:01.737Z,3.7
2019-02-05T07:31:01.890Z,3.6
2019-02-05T07:34:02.098Z,3.4
2019-02-05T07:37:01.801Z,3.5
2019-02-05T07:40:02.406Z,3.4
2019-02-05T07:43:01.973Z,3.3
2019-02-05T07:46:03.523Z,3.3
2019-02-05T07:49:01.533Z,3.8
2019-02-05T07:52:01.664Z,3.7
2019-02-05T07:55:01.527Z,3.8
2019-02-05T07:58:01.504Z,3.7
2019-02-05T08:01:05.267Z,4.1
2019-02-05T08:04:01.799Z,4.1
2019-02-05T08:07:02.002Z,3.8
2019-02-05T08:10:01.820Z,3.6
2019-02-05T08:13:01.713Z,3.6
2019-02-05T08:16:01.868Z,3.6
2019-02-05T08:19:02.096Z,3.6
2019-02-05T08:22:05.214Z,3.6
2019-02-05T08:25:01.745Z,3.6
2019-02-05T08:28:01.781Z,3.5
2019-02-05T08:31:01.652Z,3.5
2019-02-05T08:34:03.918Z,3.6
2019-02-05T08:37:01.583Z,3.6
2019-02-05T08:40:01.831Z,3.8
2019-02-05T08:43:01.686Z,3.6
2019-02-05T08:46:01.977Z,3.7
2019-02-05T08:49:01.538Z,5.9
2019-02-05T08:52:01.971Z,5.8
2019-02-05T08:55:01.725Z,5.3
2019-02-05T08:58:03.114Z,4.5
2019-02-05T09:01:01.778Z,4.1
2019-02-05T09:04:01.810Z,4.2
2019-02-05T09:07:01.567Z,4.3
2019-02-05T09:10:01.668Z,4.7
2019-02-05T09:13:05.071Z,4.2
2019-02-05T09:16:01.735Z,4.1
2019-02-05T09:19:01.825Z,3.9
2019-02-05T09:22:01.679Z,3.9
2019-02-05T09:25:01.781Z,4.3
2019-02-05T09:28:05.382Z,4.3
2019-02-05T09:31:01.859Z,3.9
2019-02-05T09:34:01.656Z,3.7
2019-02-05T09:37:01.549Z,4.1
2019-02-05T09:40:01.582Z,3.8
2019-02-05T09:43:06.254Z,3.7
2019-02-05T09:46:01.523Z,3.5
2019-02-05T09:49:01.564Z,4
2019-02-05T09:52:02.054Z,4
2019-02-05T09:55:01.504Z,3.6
2019-02-05T09:58:02.194Z,3.6
2019-02-05T10:01:01.775Z,3.6
2019-02-05T10:04:02.670Z,3.6
2019-02-05T10:07:02.051Z,3.4
2019-02-05T10:10:02.124Z,3.3
2019-02-05T10:13:01.910Z,3.3
2019-02-05T10:16:01.988Z,3.3
2019-02-05T10:19:04.212Z,3.3
2019-02-05T10:22:01.573Z,3.3
2019-02-05T10:25:02.101Z,3.3
2019-02-05T10:28:01.697Z,3.4
2019-02-05T10:31:01.640Z,3.3
2019-02-05T10:34:04.012Z,3.4
2019-02-05T10:37:02.089Z,3.4
2019-02-05T10:40:01.752Z,3.3
2019-02-05T10:43:02.214Z,3.3
2019-02-05T10:46:02.133Z,3.3
2019-02-05T10:49:06.372Z,3.3
2019-02-05T10:52:02.276Z,3.2
2019-02-05T10:55:03.624Z,3.2
2019-02-05T10:58:01.797Z,3.2
2019-02-05T11:01:01.597Z,3.1
2019-02-05T11:04:02.004Z,3.1
2019-02-05T11:07:01.772Z,3.1
2019-02-05T11:10:01.775Z,3.1
2019-02-05T11:13:02.044Z,3.2
2019-02-05T11:16:02.244Z,3.3
2019-02-05T11:19:01.577Z,3.2
2019-02-05T11:22:01.984Z,3.3
2019-02-05T11:25:01.767Z,3.2
2019-02-05T11:28:01.994Z,3.2
2019-02-05T11:31:02.067Z,3.5
2019-02-05T11:34:01.651Z,3.4
2019-02-05T11:37:01.545Z,3.3
2019-02-05T11:40:03.574Z,3.2
2019-02-05T11:43:01.760Z,3.4
2019-02-05T11:46:01.814Z,3.7
2019-02-05T11:49:01.759Z,3.9
2019-02-05T11:52:02.129Z,3.7
2019-02-05T11:55:05.416Z,3.7
2019-02-05T11:58:02.109Z,3.7
2019-02-05T12:01:02.362Z,3.8
2019-02-05T12:04:02.204Z,3.9
2019-02-05T12:07:02.198Z,4.3
2019-02-05T12:10:05.217Z,4.4
2019-02-05T12:13:01.651Z,4.7
2019-02-05T12:16:02.542Z,4.3
2019-02-05T12:19:03.510Z,4.8
2019-02-05T12:22:01.565Z,4.3
2019-02-05T12:25:01.637Z,3.8
2019-02-05T12:28:01.516Z,4.3
2019-02-05T12:31:02.586Z,3.8
2019-02-05T12:34:01.837Z,4.8
2019-02-05T12:37:01.583Z,6.4
2019-02-05T12:40:02.031Z,5.4
2019-02-05T12:43:01.563Z,5.6
2019-02-05T12:46:02.485Z,4.5
2019-02-05T12:49:01.937Z,3.9
2019-02-05T12:52:01.551Z,3.5
2019-02-05T12:55:16.634Z,3.4
2019-02-05T12:58:01.677Z,3.1
2019-02-05T13:01:01.959Z,3.1
2019-02-05T13:04:01.769Z,3.5
2019-02-05T13:07:01.397Z,3.1
2019-02-05T13:10:01.786Z,3.1
2019-02-05T13:13:01.675Z,3.4
2019-02-05T13:16:01.380Z,3.6
2019-02-05T13:19:01.711Z,3.7
2019-02-05T13:22:01.437Z,3.2
2019-02-05T13:25:04.938Z,3
2019-02-05T13:28:01.801Z,3.3
2019-02-05T13:31:08.753Z,3.1
2019-02-05T13:34:01.406Z,2.9
2019-02-05T13:37:01.489Z,2.9
2019-02-05T13:40:01.777Z,2.7
2019-02-05T13:43:01.571Z,2.8
2019-02-05T13:46:01.725Z,3.4
2019-02-05T13:49:02.344Z,4.1
2019-02-05T13:52:01.862Z,3.8
2019-02-05T13:55:01.518Z,4
2019-02-05T13:58:01.515Z,3.5
2019-02-05T14:01:03.588Z,3
2019-02-05T14:04:02.179Z,3.3
2019-02-05T14:07:01.965Z,4.7
2019-02-05T14:10:01.920Z,3.8
2019-02-05T14:13:01.800Z,3.6
2019-02-05T14:16:01.950Z,3.2
2019-02-05T14:19:05.527Z,3.4
2019-02-05T14:22:01.812Z,3.1
2019-02-05T14:25:01.643Z,2.8
2019-02-05T14:28:01.462Z,2.8
2019-02-05T14:31:01.820Z,3.4
2019-02-05T14:34:04.408Z,3.2
2019-02-05T14:37:01.755Z,2.9
2019-02-05T14:40:01.465Z,3.6
2019-02-05T14:43:02.086Z,3.4
2019-02-05T14:46:01.545Z,3.4
2019-02-05T14:49:01.876Z,3.3
2019-02-05T14:52:01.321Z,4.9
2019-02-05T14:55:01.435Z,4.5
2019-02-05T14:58:01.339Z,3.8
2019-02-05T15:01:01.235Z,3.3
2019-02-05T15:04:02.007Z,3.3
2019-02-05T15:07:01.273Z,2.9
2019-02-05T15:10:01.364Z,4.6
2019-02-05T15:13:05.098Z,4
2019-02-05T15:16:01.924Z,5
2019-02-05T15:19:01.854Z,6.2
2019-02-05T15:22:01.839Z,5.1
2019-02-05T15:25:01.705Z,4.8
2019-02-05T15:28:02.694Z,3.7
2019-02-05T15:31:01.226Z,3.5
2019-02-05T15:34:02.335Z,3.4
2019-02-05T15:37:01.380Z,3.1
2019-02-05T15:40:01.320Z,3.4
2019-02-05T15:43:01.579Z,3.2
2019-02-05T15:46:01.226Z,2.8
2019-02-05T15:49:03.154Z,2.5
2019-02-05T15:52:06.812Z,2.7
2019-02-05T15:55:01.331Z,2.6
2019-02-05T15:58:01.293Z,2.8
2019-02-05T16:01:01.940Z,2.7
2019-02-05T16:04:01.173Z,2.8
2019-02-05T16:07:04.770Z,2.7
2019-02-05T16:10:01.520Z,2.9
2019-02-05T16:13:03.916Z,3.4
2019-02-05T16:16:01.239Z,2.9
2019-02-05T16:19:01.284Z,2.8
2019-02-05T16:22:03.219Z,2.9
2019-02-05T16:25:01.602Z,2.8
2019-02-05T16:28:01.284Z,2.6
2019-02-05T16:31:01.154Z,2.5
2019-02-05T16:34:01.292Z,2.6
2019-02-05T16:37:01.543Z,2.7
2019-02-05T16:40:01.380Z,3.2
2019-02-05T16:43:01.436Z,2.8
2019-02-05T16:46:01.158Z,2.9
2019-02-05T16:49:01.357Z,2.8
2019-02-05T16:52:01.340Z,2.9
2019-02-05T16:55:01.710Z,2.8
2019-02-05T16:58:01.098Z,3.2
2019-02-05T17:01:01.227Z,2.9
2019-02-05T17:04:01.405Z,3.1
2019-02-05T17:07:02.405Z,4.3
2019-02-05T17:10:01.725Z,3.3
2019-02-05T17:13:01.385Z,2.8
2019-02-05T17:16:04.654Z,3
2019-02-05T17:19:01.895Z,3.2
2019-02-05T17:22:01.160Z,2.8
2019-02-05T17:25:01.507Z,2.6
2019-02-05T17:28:03.099Z,2.5
2019-02-05T17:31:02.509Z,3
2019-02-05T17:34:01.349Z,3
2019-02-05T17:37:01.273Z,2.7
2019-02-05T17:40:01.550Z,2.6
2019-02-05T17:43:01.341Z,2.5
2019-02-05T17:46:01.260Z,2.9
2019-02-05T17:49:01.285Z,2.8
2019-02-05T17:52:01.586Z,2.7
2019-02-05T17:55:01.322Z,2.9
2019-02-05T17:58:01.332Z,2.9
2019-02-05T18:01:01.670Z,2.8
2019-02-05T18:04:01.674Z,2.8
2019-02-05T18:07:01.731Z,2.7
2019-02-05T18:10:04.529Z,2.7
2019-02-05T18:13:01.555Z,2.7
2019-02-05T18:16:01.439Z,2.7
2019-02-05T18:19:01.068Z,2.8
2019-02-05T18:22:01.273Z,2.8
2019-02-05T18:25:03.329Z,2.9
2019-02-05T18:28:01.241Z,2.9
2019-02-05T18:31:01.452Z,3
2019-02-05T18:34:01.126Z,3
2019-02-05T18:37:01.503Z,3
2019-02-05T18:40:01.708Z,3
2019-02-05T18:43:01.345Z,3.1
2019-02-05T18:46:01.184Z,3.3
2019-02-05T18:49:10.701Z,3.1
2019-02-05T18:52:01.351Z,3
2019-02-05T18:55:02.369Z,3.2
2019-02-05T18:58:10.274Z,3.3
2019-02-05T19:01:01.784Z,3.6
2019-02-05T19:04:01.179Z,3.7
2019-02-05T19:07:04.276Z,3.8
2019-02-05T19:10:01.499Z,4
2019-02-05T19:13:01.190Z,3.9
2019-02-05T19:16:02.108Z,4.1
2019-02-05T19:19:15.734Z,4
2019-02-05T19:22:01.153Z,3.8
2019-02-05T19:25:01.241Z,4
2019-02-05T19:28:01.723Z,4.4
2019-02-05T19:31:01.488Z,4.5
2019-02-05T19:34:02.116Z,4.3
2019-02-05T19:37:01.414Z,4.1
2019-02-05T19:40:01.362Z,4
2019-02-05T19:43:01.397Z,4
2019-02-05T19:46:01.265Z,4.1
2019-02-05T19:49:02.374Z,4.4
2019-02-05T19:52:01.482Z,4.5
2019-02-05T19:55:01.288Z,4.4
2019-02-05T19:58:01.240Z,4.9
2019-02-05T20:01:01.446Z,4.8
2019-02-05T20:04:01.210Z,5.8
2019-02-05T20:07:01.250Z,5.9
2019-02-05T20:10:02.762Z,6.4
2019-02-05T20:13:01.727Z,6.8
2019-02-05T20:16:03.223Z,7.9
2019-02-05T20:19:01.748Z,7.5
2019-02-05T20:22:01.646Z,7.3
2019-02-05T20:25:03.007Z,7
2019-02-05T20:28:01.071Z,7.3
2019-02-05T20:31:01.477Z,8.1
2019-02-05T20:34:02.210Z,7.5
2019-02-05T20:37:01.390Z,7.8
2019-02-05T20:40:03.659Z,7.1
2019-02-05T20:43:01.389Z,6.8
2019-02-05T20:46:01.811Z,6.5
2019-02-05T20:49:01.692Z,6.7
2019-02-05T20:52:01.147Z,6.7
2019-02-05T20:55:04.793Z,6.7
2019-02-05T20:58:01.127Z,7.1
2019-02-05T21:01:01.559Z,7.1
2019-02-05T21:04:02.004Z,6.4
2019-02-05T21:07:00.977Z,6.4
2019-02-05T21:10:01.441Z,6.3
2019-02-05T21:13:01.338Z,6.4
2019-02-05T21:16:01.256Z,6.2
2019-02-05T21:19:01.118Z,7.6
2019-02-05T21:22:01.524Z,6.9
2019-02-05T21:25:01.180Z,7.2
2019-02-05T21:28:01.290Z,6.6
2019-02-05T21:31:01.468Z,6.2
2019-02-05T21:34:16.500Z,6.1
2019-02-05T21:37:01.310Z,6.3
2019-02-05T21:40:03.188Z,6.5
2019-02-05T21:43:01.374Z,6.9
2019-02-05T21:46:01.616Z,6.4
2019-02-05T21:49:01.123Z,6.7
2019-02-05T21:52:01.544Z,6.5
2019-02-05T21:55:01.549Z,6.1
2019-02-05T21:58:01.776Z,6
2019-02-05T22:01:01.938Z,6.7
2019-02-05T22:04:01.804Z,6.2
2019-02-05T22:07:03.259Z,6
2019-02-05T22:10:02.194Z,5.8
2019-02-05T22:13:07.505Z,5.8
2019-02-05T22:16:01.230Z,5.9
2019-02-05T22:19:01.502Z,6.1
2019-02-05T22:22:01.426Z,6.1
2019-02-05T22:25:02.571Z,6.1
2019-02-05T22:28:02.592Z,6
2019-02-05T22:31:01.782Z,6
2019-02-05T22:34:01.513Z,5.9
2019-02-05T22:37:07.570Z,6
2019-02-05T22:40:01.320Z,5.9
2019-02-05T22:43:01.304Z,5.9
2019-02-05T22:46:04.360Z,5.9
2019-02-05T22:49:01.420Z,6
2019-02-05T22:52:01.522Z,5.9
2019-02-05T22:55:01.103Z,5.8
2019-02-05T22:58:01.029Z,6
2019-02-05T23:01:01.096Z,5.9
2019-02-05T23:04:01.807Z,6
2019-02-05T23:07:01.066Z,6
2019-02-05T23:10:01.730Z,6
2019-02-05T23:13:01.141Z,5.8
2019-02-05T23:16:01.093Z,5.8
2019-02-05T23:19:01.137Z,5.8
2019-02-05T23:22:01.175Z,5.7
2019-02-05T23:25:01.175Z,5.8
2019-02-05T23:28:01.204Z,5.7
2019-02-05T23:31:01.473Z,5.7
2019-02-05T23:34:01.538Z,5.8
2019-02-05T23:37:01.276Z,6.2
2019-02-05T23:40:01.638Z,5.8
2019-02-05T23:43:02.255Z,5.7
2019-02-05T23:46:02.264Z,5.6
2019-02-05T23:49:01.420Z,5.6
2019-02-05T23:52:01.002Z,5.6
2019-02-05T23:55:01.504Z,5.6
2019-02-05T23:58:01.080Z,5.5
